sensor_id;sensor_type;location;lat;lon;timestamp;P1;durP1;ratioP1;P2;durP2;ratioP2
75446;SDS011;64024;55.820;37.574;2023-05-29T00:01:48;6.90;;;3.40;;
75446;SDS011;64024;55.820;37.574;2023-05-29T00:04:15;4.63;;;3.25;;
75446;SDS011;64024;55.820;37.574;2023-05-29T00:06:40;3.85;;;3.00;;
75446;SDS011;64024;55.820;37.574;2023-05-29T00:09:06;5.82;;;3.45;;
75446;SDS011;64024;55.820;37.574;2023-05-29T00:11:32;4.30;;;3.20;;
75446;SDS011;64024;55.820;37.574;2023-05-29T00:13:58;5.18;;;4.20;;
75446;SDS011;64024;55.820;37.574;2023-05-29T00:16:24;5.38;;;3.60;;
75446;SDS011;64024;55.820;37.574;2023-05-29T00:18:51;4.47;;;3.80;;
75446;SDS011;64024;55.820;37.574;2023-05-29T00:21:18;4.05;;;3.22;;
75446;SDS011;64024;55.820;37.574;2023-05-29T00:23:45;6.20;;;3.20;;
75446;SDS011;64024;55.820;37.574;2023-05-29T00:26:11;4.38;;;2.90;;
75446;SDS011;64024;55.820;37.574;2023-05-29T00:28:38;11.75;;;3.83;;
75446;SDS011;64024;55.820;37.574;2023-05-29T00:31:03;8.05;;;4.05;;
75446;SDS011;64024;55.820;37.574;2023-05-29T00:33:29;4.43;;;3.10;;
75446;SDS011;64024;55.820;37.574;2023-05-29T00:35:55;5.40;;;3.40;;
75446;SDS011;64024;55.820;37.574;2023-05-29T00:38:21;4.20;;;2.92;;
75446;SDS011;64024;55.820;37.574;2023-05-29T00:40:47;4.28;;;2.90;;
75446;SDS011;64024;55.820;37.574;2023-05-29T00:43:13;4.43;;;3.00;;
75446;SDS011;64024;55.820;37.574;2023-05-29T00:45:40;5.55;;;3.30;;
75446;SDS011;64024;55.820;37.574;2023-05-29T00:48:06;7.60;;;4.25;;
75446;SDS011;64024;55.820;37.574;2023-05-29T00:50:33;5.95;;;3.20;;
75446;SDS011;64024;55.820;37.574;2023-05-29T00:53:00;7.35;;;3.33;;
75446;SDS011;64024;55.820;37.574;2023-05-29T00:57:54;4.97;;;3.13;;
75446;SDS011;64024;55.820;37.574;2023-05-29T01:00:20;4.18;;;2.85;;
75446;SDS011;64024;55.820;37.574;2023-05-29T01:02:47;7.35;;;4.50;;
75446;SDS011;64024;55.820;37.574;2023-05-29T01:05:14;6.57;;;3.92;;
75446;SDS011;64024;55.820;37.574;2023-05-29T01:07:40;8.70;;;3.42;;
75446;SDS011;64024;55.820;37.574;2023-05-29T01:10:07;6.43;;;3.53;;
75446;SDS011;64024;55.820;37.574;2023-05-29T01:12:38;3.22;;;2.58;;
75446;SDS011;64024;55.820;37.574;2023-05-29T01:20:33;6.70;;;3.53;;
75446;SDS011;64024;55.820;37.574;2023-05-29T01:26:01;5.43;;;2.83;;
75446;SDS011;64024;55.820;37.574;2023-05-29T01:29:00;3.90;;;2.80;;
75446;SDS011;64024;55.820;37.574;2023-05-29T01:31:30;3.50;;;2.95;;
75446;SDS011;64024;55.820;37.574;2023-05-29T01:33:58;5.05;;;2.70;;
75446;SDS011;64024;55.820;37.574;2023-05-29T01:36:25;4.18;;;2.88;;
75446;SDS011;64024;55.820;37.574;2023-05-29T01:38:53;11.43;;;3.72;;
75446;SDS011;64024;55.820;37.574;2023-05-29T01:41:20;4.47;;;3.03;;
75446;SDS011;64024;55.820;37.574;2023-05-29T01:46:45;5.88;;;3.78;;
75446;SDS011;64024;55.820;37.574;2023-05-29T01:49:11;4.90;;;2.70;;
75446;SDS011;64024;55.820;37.574;2023-05-29T01:51:39;5.40;;;3.15;;
75446;SDS011;64024;55.820;37.574;2023-05-29T01:54:16;4.68;;;2.60;;
75446;SDS011;64024;55.820;37.574;2023-05-29T01:56:42;7.55;;;3.10;;
75446;SDS011;64024;55.820;37.574;2023-05-29T01:59:09;7.40;;;4.25;;
75446;SDS011;64024;55.820;37.574;2023-05-29T02:01:38;5.10;;;3.08;;
75446;SDS011;64024;55.820;37.574;2023-05-29T02:04:05;4.55;;;3.30;;
75446;SDS011;64024;55.820;37.574;2023-05-29T02:06:31;4.18;;;2.97;;
75446;SDS011;64024;55.820;37.574;2023-05-29T02:11:24;3.47;;;2.38;;
75446;SDS011;64024;55.820;37.574;2023-05-29T02:13:51;6.13;;;2.90;;
75446;SDS011;64024;55.820;37.574;2023-05-29T02:16:17;5.60;;;2.97;;
75446;SDS011;64024;55.820;37.574;2023-05-29T02:18:48;5.75;;;3.03;;
75446;SDS011;64024;55.820;37.574;2023-05-29T02:21:14;3.25;;;2.60;;
75446;SDS011;64024;55.820;37.574;2023-05-29T02:23:41;4.97;;;2.30;;
75446;SDS011;64024;55.820;37.574;2023-05-29T02:26:07;4.32;;;2.67;;
75446;SDS011;64024;55.820;37.574;2023-05-29T02:28:33;7.05;;;2.83;;
75446;SDS011;64024;55.820;37.574;2023-05-29T02:30:59;7.13;;;2.80;;
75446;SDS011;64024;55.820;37.574;2023-05-29T02:33:25;5.40;;;2.55;;
75446;SDS011;64024;55.820;37.574;2023-05-29T02:35:50;3.08;;;2.10;;
75446;SDS011;64024;55.820;37.574;2023-05-29T02:38:16;6.03;;;2.15;;
75446;SDS011;64024;55.820;37.574;2023-05-29T02:40:43;3.88;;;2.17;;
75446;SDS011;64024;55.820;37.574;2023-05-29T02:43:12;3.13;;;2.42;;
75446;SDS011;64024;55.820;37.574;2023-05-29T02:45:39;6.10;;;2.58;;
75446;SDS011;64024;55.820;37.574;2023-05-29T02:48:12;7.38;;;3.20;;
75446;SDS011;64024;55.820;37.574;2023-05-29T02:51:06;5.50;;;2.22;;
75446;SDS011;64024;55.820;37.574;2023-05-29T02:53:32;5.28;;;2.15;;
75446;SDS011;64024;55.820;37.574;2023-05-29T02:55:58;4.57;;;2.00;;
75446;SDS011;64024;55.820;37.574;2023-05-29T02:58:24;3.95;;;1.95;;
75446;SDS011;64024;55.820;37.574;2023-05-29T03:00:50;2.15;;;1.40;;
75446;SDS011;64024;55.820;37.574;2023-05-29T03:03:17;4.28;;;2.13;;
75446;SDS011;64024;55.820;37.574;2023-05-29T03:05:44;6.38;;;2.17;;
75446;SDS011;64024;55.820;37.574;2023-05-29T03:10:37;4.38;;;2.05;;
75446;SDS011;64024;55.820;37.574;2023-05-29T03:13:03;5.95;;;1.80;;
75446;SDS011;64024;55.820;37.574;2023-05-29T03:17:57;2.30;;;1.52;;
75446;SDS011;64024;55.820;37.574;2023-05-29T03:20:23;3.28;;;1.90;;
75446;SDS011;64024;55.820;37.574;2023-05-29T03:22:51;4.60;;;1.88;;
75446;SDS011;64024;55.820;37.574;2023-05-29T03:25:17;5.05;;;2.22;;
75446;SDS011;64024;55.820;37.574;2023-05-29T03:27:45;4.32;;;2.42;;
75446;SDS011;64024;55.820;37.574;2023-05-29T03:30:11;3.90;;;2.22;;
75446;SDS011;64024;55.820;37.574;2023-05-29T03:32:38;4.13;;;1.90;;
75446;SDS011;64024;55.820;37.574;2023-05-29T03:35:04;5.05;;;2.67;;
75446;SDS011;64024;55.820;37.574;2023-05-29T03:37:30;5.55;;;2.28;;
75446;SDS011;64024;55.820;37.574;2023-05-29T03:39:58;5.45;;;2.35;;
75446;SDS011;64024;55.820;37.574;2023-05-29T03:42:24;4.05;;;2.45;;
75446;SDS011;64024;55.820;37.574;2023-05-29T03:44:50;6.53;;;3.40;;
75446;SDS011;64024;55.820;37.574;2023-05-29T03:47:16;5.53;;;2.67;;
75446;SDS011;64024;55.820;37.574;2023-05-29T03:49:42;4.88;;;2.72;;
75446;SDS011;64024;55.820;37.574;2023-05-29T03:52:09;3.97;;;2.25;;
75446;SDS011;64024;55.820;37.574;2023-05-29T03:54:35;3.22;;;2.20;;
75446;SDS011;64024;55.820;37.574;2023-05-29T03:57:01;4.53;;;2.55;;
75446;SDS011;64024;55.820;37.574;2023-05-29T03:59:27;6.80;;;2.65;;
75446;SDS011;64024;55.820;37.574;2023-05-29T04:01:53;8.27;;;3.10;;
75446;SDS011;64024;55.820;37.574;2023-05-29T04:04:19;5.38;;;2.90;;
75446;SDS011;64024;55.820;37.574;2023-05-29T04:06:46;4.22;;;2.80;;
75446;SDS011;64024;55.820;37.574;2023-05-29T04:09:11;5.22;;;3.95;;
75446;SDS011;64024;55.820;37.574;2023-05-29T04:11:38;7.43;;;4.60;;
75446;SDS011;64024;55.820;37.574;2023-05-29T04:14:04;7.50;;;4.88;;
75446;SDS011;64024;55.820;37.574;2023-05-29T04:16:30;7.72;;;5.00;;
75446;SDS011;64024;55.820;37.574;2023-05-29T04:18:56;8.38;;;5.00;;
75446;SDS011;64024;55.820;37.574;2023-05-29T04:21:22;7.65;;;6.95;;
75446;SDS011;64024;55.820;37.574;2023-05-29T04:23:48;7.43;;;6.07;;
75446;SDS011;64024;55.820;37.574;2023-05-29T04:26:14;8.68;;;5.88;;
75446;SDS011;64024;55.820;37.574;2023-05-29T04:28:58;8.48;;;4.35;;
75446;SDS011;64024;55.820;37.574;2023-05-29T04:31:25;5.30;;;3.58;;
75446;SDS011;64024;55.820;37.574;2023-05-29T04:33:52;5.18;;;3.65;;
75446;SDS011;64024;55.820;37.574;2023-05-29T04:36:24;5.68;;;3.70;;
75446;SDS011;64024;55.820;37.574;2023-05-29T04:38:53;4.10;;;2.63;;
75446;SDS011;64024;55.820;37.574;2023-05-29T04:41:19;4.07;;;2.78;;
75446;SDS011;64024;55.820;37.574;2023-05-29T04:43:51;6.70;;;2.67;;
75446;SDS011;64024;55.820;37.574;2023-05-29T04:46:17;4.55;;;2.25;;
75446;SDS011;64024;55.820;37.574;2023-05-29T04:48:43;6.22;;;2.58;;
75446;SDS011;64024;55.820;37.574;2023-05-29T04:51:10;5.65;;;2.63;;
75446;SDS011;64024;55.820;37.574;2023-05-29T04:53:37;6.20;;;2.65;;
75446;SDS011;64024;55.820;37.574;2023-05-29T04:56:05;7.65;;;2.75;;
75446;SDS011;64024;55.820;37.574;2023-05-29T04:58:31;2.92;;;2.10;;
75446;SDS011;64024;55.820;37.574;2023-05-29T05:00:57;5.25;;;2.90;;
75446;SDS011;64024;55.820;37.574;2023-05-29T05:03:24;2.97;;;2.30;;
75446;SDS011;64024;55.820;37.574;2023-05-29T05:05:50;8.45;;;3.28;;
75446;SDS011;64024;55.820;37.574;2023-05-29T05:08:17;6.93;;;3.42;;
75446;SDS011;64024;55.820;37.574;2023-05-29T05:10:43;7.47;;;3.30;;
75446;SDS011;64024;55.820;37.574;2023-05-29T05:13:09;4.15;;;2.63;;
75446;SDS011;64024;55.820;37.574;2023-05-29T05:18:02;4.60;;;2.70;;
75446;SDS011;64024;55.820;37.574;2023-05-29T05:20:28;5.15;;;2.75;;
75446;SDS011;64024;55.820;37.574;2023-05-29T05:22:54;4.47;;;2.88;;
75446;SDS011;64024;55.820;37.574;2023-05-29T05:25:21;6.05;;;3.50;;
75446;SDS011;64024;55.820;37.574;2023-05-29T05:27:47;5.80;;;3.10;;
75446;SDS011;64024;55.820;37.574;2023-05-29T05:30:13;6.68;;;3.30;;
75446;SDS011;64024;55.820;37.574;2023-05-29T05:32:39;5.10;;;2.80;;
75446;SDS011;64024;55.820;37.574;2023-05-29T05:35:06;4.00;;;2.90;;
75446;SDS011;64024;55.820;37.574;2023-05-29T05:37:35;5.07;;;2.88;;
75446;SDS011;64024;55.820;37.574;2023-05-29T05:40:01;4.95;;;3.72;;
75446;SDS011;64024;55.820;37.574;2023-05-29T05:42:28;4.80;;;3.28;;
75446;SDS011;64024;55.820;37.574;2023-05-29T05:44:54;6.65;;;3.40;;
75446;SDS011;64024;55.820;37.574;2023-05-29T05:47:20;5.70;;;3.80;;
75446;SDS011;64024;55.820;37.574;2023-05-29T05:49:46;5.72;;;3.17;;
75446;SDS011;64024;55.820;37.574;2023-05-29T05:52:14;4.35;;;2.70;;
75446;SDS011;64024;55.820;37.574;2023-05-29T05:54:42;4.10;;;3.70;;
75446;SDS011;64024;55.820;37.574;2023-05-29T05:59:36;5.15;;;3.55;;
75446;SDS011;64024;55.820;37.574;2023-05-29T06:04:29;4.65;;;3.03;;
75446;SDS011;64024;55.820;37.574;2023-05-29T06:06:56;4.35;;;2.85;;
75446;SDS011;64024;55.820;37.574;2023-05-29T06:09:22;4.95;;;3.55;;
75446;SDS011;64024;55.820;37.574;2023-05-29T06:11:50;3.65;;;2.38;;
75446;SDS011;64024;55.820;37.574;2023-05-29T06:16:42;5.22;;;3.00;;
75446;SDS011;64024;55.820;37.574;2023-05-29T06:19:08;3.72;;;2.28;;
75446;SDS011;64024;55.820;37.574;2023-05-29T06:21:35;3.65;;;2.30;;
75446;SDS011;64024;55.820;37.574;2023-05-29T06:24:02;2.95;;;2.42;;
75446;SDS011;64024;55.820;37.574;2023-05-29T06:26:29;4.28;;;2.35;;
75446;SDS011;64024;55.820;37.574;2023-05-29T06:28:54;5.15;;;3.20;;
75446;SDS011;64024;55.820;37.574;2023-05-29T06:33:47;6.38;;;2.72;;
75446;SDS011;64024;55.820;37.574;2023-05-29T06:36:13;5.93;;;4.72;;
75446;SDS011;64024;55.820;37.574;2023-05-29T06:38:45;5.40;;;4.28;;
75446;SDS011;64024;55.820;37.574;2023-05-29T06:41:15;6.78;;;4.72;;
75446;SDS011;64024;55.820;37.574;2023-05-29T06:43:41;5.38;;;4.00;;
75446;SDS011;64024;55.820;37.574;2023-05-29T06:46:07;4.30;;;2.85;;
75446;SDS011;64024;55.820;37.574;2023-05-29T06:48:34;4.05;;;2.25;;
75446;SDS011;64024;55.820;37.574;2023-05-29T06:51:00;4.43;;;2.38;;
75446;SDS011;64024;55.820;37.574;2023-05-29T06:53:27;2.45;;;1.80;;
75446;SDS011;64024;55.820;37.574;2023-05-29T06:55:53;2.80;;;1.73;;
75446;SDS011;64024;55.820;37.574;2023-05-29T06:58:19;1.63;;;1.20;;
75446;SDS011;64024;55.820;37.574;2023-05-29T07:06:33;4.53;;;1.80;;
75446;SDS011;64024;55.820;37.574;2023-05-29T07:08:59;5.32;;;1.83;;
75446;SDS011;64024;55.820;37.574;2023-05-29T07:11:25;3.90;;;1.58;;
75446;SDS011;64024;55.820;37.574;2023-05-29T07:13:53;5.03;;;1.65;;
75446;SDS011;64024;55.820;37.574;2023-05-29T07:16:20;4.80;;;1.75;;
75446;SDS011;64024;55.820;37.574;2023-05-29T07:18:46;4.70;;;1.20;;
75446;SDS011;64024;55.820;37.574;2023-05-29T07:21:13;2.13;;;1.20;;
75446;SDS011;64024;55.820;37.574;2023-05-29T07:23:39;2.33;;;1.38;;
75446;SDS011;64024;55.820;37.574;2023-05-29T07:26:05;2.10;;;1.10;;
75446;SDS011;64024;55.820;37.574;2023-05-29T07:28:31;2.55;;;1.20;;
75446;SDS011;64024;55.820;37.574;2023-05-29T07:30:57;3.15;;;1.58;;
75446;SDS011;64024;55.820;37.574;2023-05-29T07:33:23;2.88;;;1.55;;
75446;SDS011;64024;55.820;37.574;2023-05-29T07:35:50;4.45;;;1.55;;
75446;SDS011;64024;55.820;37.574;2023-05-29T07:38:16;3.72;;;1.67;;
75446;SDS011;64024;55.820;37.574;2023-05-29T07:40:42;3.08;;;1.63;;
75446;SDS011;64024;55.820;37.574;2023-05-29T07:43:08;2.42;;;1.63;;
75446;SDS011;64024;55.820;37.574;2023-05-29T07:45:34;2.33;;;0.95;;
75446;SDS011;64024;55.820;37.574;2023-05-29T07:48:00;1.92;;;1.30;;
75446;SDS011;64024;55.820;37.574;2023-05-29T07:50:27;4.10;;;1.77;;
75446;SDS011;64024;55.820;37.574;2023-05-29T07:52:54;6.82;;;2.10;;
75446;SDS011;64024;55.820;37.574;2023-05-29T07:55:21;5.28;;;2.08;;
75446;SDS011;64024;55.820;37.574;2023-05-29T07:57:47;4.30;;;1.63;;
75446;SDS011;64024;55.820;37.574;2023-05-29T08:00:14;2.58;;;1.15;;
75446;SDS011;64024;55.820;37.574;2023-05-29T08:02:41;3.58;;;1.30;;
75446;SDS011;64024;55.820;37.574;2023-05-29T08:05:08;3.78;;;1.63;;
75446;SDS011;64024;55.820;37.574;2023-05-29T08:07:36;4.82;;;2.20;;
75446;SDS011;64024;55.820;37.574;2023-05-29T08:10:02;2.72;;;1.30;;
75446;SDS011;64024;55.820;37.574;2023-05-29T08:12:30;2.75;;;1.33;;
75446;SDS011;64024;55.820;37.574;2023-05-29T08:14:56;2.72;;;1.58;;
75446;SDS011;64024;55.820;37.574;2023-05-29T08:17:22;3.78;;;1.50;;
75446;SDS011;64024;55.820;37.574;2023-05-29T08:19:48;3.97;;;1.73;;
75446;SDS011;64024;55.820;37.574;2023-05-29T08:24:41;2.33;;;0.90;;
75446;SDS011;64024;55.820;37.574;2023-05-29T08:27:07;1.58;;;0.77;;
75446;SDS011;64024;55.820;37.574;2023-05-29T08:29:33;3.22;;;1.02;;
75446;SDS011;64024;55.820;37.574;2023-05-29T08:32:01;2.78;;;1.70;;
75446;SDS011;64024;55.820;37.574;2023-05-29T08:34:26;1.77;;;1.13;;
75446;SDS011;64024;55.820;37.574;2023-05-29T08:36:53;2.22;;;1.20;;
75446;SDS011;64024;55.820;37.574;2023-05-29T08:44:22;3.08;;;1.52;;
75446;SDS011;64024;55.820;37.574;2023-05-29T08:46:50;1.55;;;1.00;;
75446;SDS011;64024;55.820;37.574;2023-05-29T08:49:21;1.98;;;1.38;;
75446;SDS011;64024;55.820;37.574;2023-05-29T08:51:49;1.50;;;1.00;;
75446;SDS011;64024;55.820;37.574;2023-05-29T08:54:20;1.92;;;1.08;;
75446;SDS011;64024;55.820;37.574;2023-05-29T08:56:49;1.55;;;0.80;;
75446;SDS011;64024;55.820;37.574;2023-05-29T08:59:15;5.18;;;1.55;;
75446;SDS011;64024;55.820;37.574;2023-05-29T09:01:42;3.65;;;1.15;;
75446;SDS011;64024;55.820;37.574;2023-05-29T09:04:08;2.92;;;1.30;;
75446;SDS011;64024;55.820;37.574;2023-05-29T09:09:01;2.42;;;0.95;;
75446;SDS011;64024;55.820;37.574;2023-05-29T09:11:30;2.50;;;1.17;;
75446;SDS011;64024;55.820;37.574;2023-05-29T09:13:57;1.73;;;1.13;;
75446;SDS011;64024;55.820;37.574;2023-05-29T09:16:25;8.38;;;2.58;;
75446;SDS011;64024;55.820;37.574;2023-05-29T09:18:51;5.22;;;2.67;;
75446;SDS011;64024;55.820;37.574;2023-05-29T09:21:27;3.70;;;2.03;;
75446;SDS011;64024;55.820;37.574;2023-05-29T09:23:54;3.55;;;1.92;;
75446;SDS011;64024;55.820;37.574;2023-05-29T09:26:29;2.75;;;2.00;;
75446;SDS011;64024;55.820;37.574;2023-05-29T09:31:22;3.45;;;1.60;;
75446;SDS011;64024;55.820;37.574;2023-05-29T09:33:49;3.17;;;1.00;;
75446;SDS011;64024;55.820;37.574;2023-05-29T09:36:20;1.80;;;1.13;;
75446;SDS011;64024;55.820;37.574;2023-05-29T09:38:47;2.00;;;1.63;;
75446;SDS011;64024;55.820;37.574;2023-05-29T09:41:22;1.90;;;1.48;;
75446;SDS011;64024;55.820;37.574;2023-05-29T09:43:49;2.92;;;1.30;;
75446;SDS011;64024;55.820;37.574;2023-05-29T09:46:15;1.80;;;0.88;;
75446;SDS011;64024;55.820;37.574;2023-05-29T09:48:45;9.23;;;3.03;;
75446;SDS011;64024;55.820;37.574;2023-05-29T09:51:22;3.55;;;1.50;;
75446;SDS011;64024;55.820;37.574;2023-05-29T09:53:49;2.83;;;1.23;;
75446;SDS011;64024;55.820;37.574;2023-05-29T09:56:22;1.45;;;1.00;;
75446;SDS011;64024;55.820;37.574;2023-05-29T09:58:50;1.98;;;1.40;;
75446;SDS011;64024;55.820;37.574;2023-05-29T10:01:16;1.83;;;0.95;;
75446;SDS011;64024;55.820;37.574;2023-05-29T10:03:43;1.95;;;0.70;;
75446;SDS011;64024;55.820;37.574;2023-05-29T10:06:12;2.13;;;0.93;;
75446;SDS011;64024;55.820;37.574;2023-05-29T10:08:46;1.77;;;0.95;;
75446;SDS011;64024;55.820;37.574;2023-05-29T10:11:16;1.80;;;0.82;;
75446;SDS011;64024;55.820;37.574;2023-05-29T10:13:51;2.38;;;0.93;;
75446;SDS011;64024;55.820;37.574;2023-05-29T10:18:56;1.92;;;1.02;;
75446;SDS011;64024;55.820;37.574;2023-05-29T10:21:26;2.08;;;1.00;;
75446;SDS011;64024;55.820;37.574;2023-05-29T10:23:53;2.92;;;1.00;;
75446;SDS011;64024;55.820;37.574;2023-05-29T10:26:22;1.95;;;0.95;;
75446;SDS011;64024;55.820;37.574;2023-05-29T10:31:39;5.75;;;1.20;;
75446;SDS011;64024;55.820;37.574;2023-05-29T10:34:14;2.45;;;0.88;;
75446;SDS011;64024;55.820;37.574;2023-05-29T10:36:47;1.27;;;0.70;;
75446;SDS011;64024;55.820;37.574;2023-05-29T10:39:21;12.07;;;3.10;;
75446;SDS011;64024;55.820;37.574;2023-05-29T10:41:47;5.15;;;1.30;;
75446;SDS011;64024;55.820;37.574;2023-05-29T10:49:24;2.42;;;1.15;;
75446;SDS011;64024;55.820;37.574;2023-05-29T10:51:50;1.35;;;1.00;;
75446;SDS011;64024;55.820;37.574;2023-05-29T10:54:23;3.72;;;1.25;;
75446;SDS011;64024;55.820;37.574;2023-05-29T10:56:51;9.93;;;1.95;;
75446;SDS011;64024;55.820;37.574;2023-05-29T10:59:20;4.43;;;1.20;;
75446;SDS011;64024;55.820;37.574;2023-05-29T11:01:46;4.03;;;1.35;;
75446;SDS011;64024;55.820;37.574;2023-05-29T11:06:51;1.73;;;0.98;;
75446;SDS011;64024;55.820;37.574;2023-05-29T11:12:17;2.17;;;1.17;;
75446;SDS011;64024;55.820;37.574;2023-05-29T11:15:03;5.28;;;1.92;;
75446;SDS011;64024;55.820;37.574;2023-05-29T11:20:49;2.25;;;1.33;;
75446;SDS011;64024;55.820;37.574;2023-05-29T11:23:17;2.50;;;1.27;;
75446;SDS011;64024;55.820;37.574;2023-05-29T11:25:44;3.80;;;1.23;;
75446;SDS011;64024;55.820;37.574;2023-05-29T11:28:12;2.92;;;1.83;;
75446;SDS011;64024;55.820;37.574;2023-05-29T11:30:48;9.65;;;2.85;;
75446;SDS011;64024;55.820;37.574;2023-05-29T11:33:19;5.20;;;1.70;;
75446;SDS011;64024;55.820;37.574;2023-05-29T11:35:53;6.03;;;2.13;;
75446;SDS011;64024;55.820;37.574;2023-05-29T11:38:25;3.33;;;1.20;;
75446;SDS011;64024;55.820;37.574;2023-05-29T11:40:56;3.42;;;1.33;;
75446;SDS011;64024;55.820;37.574;2023-05-29T11:43:23;2.08;;;1.08;;
75446;SDS011;64024;55.820;37.574;2023-05-29T11:45:50;2.92;;;1.30;;
75446;SDS011;64024;55.820;37.574;2023-05-29T11:48:16;5.13;;;2.08;;
75446;SDS011;64024;55.820;37.574;2023-05-29T11:50:43;5.80;;;1.35;;
75446;SDS011;64024;55.820;37.574;2023-05-29T11:53:11;3.20;;;1.35;;
75446;SDS011;64024;55.820;37.574;2023-05-29T11:55:37;3.25;;;1.50;;
75446;SDS011;64024;55.820;37.574;2023-05-29T11:58:05;2.97;;;1.45;;
75446;SDS011;64024;55.820;37.574;2023-05-29T12:00:32;2.35;;;1.42;;
75446;SDS011;64024;55.820;37.574;2023-05-29T12:02:59;2.70;;;1.20;;
75446;SDS011;64024;55.820;37.574;2023-05-29T12:05:32;11.32;;;3.22;;
75446;SDS011;64024;55.820;37.574;2023-05-29T12:08:14;3.28;;;1.50;;
75446;SDS011;64024;55.820;37.574;2023-05-29T12:10:50;2.85;;;1.42;;
75446;SDS011;64024;55.820;37.574;2023-05-29T12:13:21;4.88;;;1.42;;
75446;SDS011;64024;55.820;37.574;2023-05-29T12:15:50;2.83;;;1.50;;
75446;SDS011;64024;55.820;37.574;2023-05-29T12:18:20;2.15;;;0.98;;
75446;SDS011;64024;55.820;37.574;2023-05-29T12:20:48;2.35;;;1.30;;
75446;SDS011;64024;55.820;37.574;2023-05-29T12:23:16;7.50;;;2.30;;
75446;SDS011;64024;55.820;37.574;2023-05-29T12:25:48;3.45;;;2.00;;
75446;SDS011;64024;55.820;37.574;2023-05-29T12:28:17;3.72;;;1.83;;
75446;SDS011;64024;55.820;37.574;2023-05-29T12:30:44;3.03;;;1.90;;
75446;SDS011;64024;55.820;37.574;2023-05-29T12:33:30;3.35;;;1.88;;
75446;SDS011;64024;55.820;37.574;2023-05-29T12:38:32;3.03;;;1.65;;
75446;SDS011;64024;55.820;37.574;2023-05-29T12:40:59;8.23;;;2.75;;
75446;SDS011;64024;55.820;37.574;2023-05-29T12:43:25;4.80;;;2.03;;
75446;SDS011;64024;55.820;37.574;2023-05-29T12:45:55;2.55;;;1.58;;
75446;SDS011;64024;55.820;37.574;2023-05-29T12:48:25;2.35;;;1.35;;
75446;SDS011;64024;55.820;37.574;2023-05-29T12:50:52;1.77;;;1.20;;
75446;SDS011;64024;55.820;37.574;2023-05-29T12:53:21;2.33;;;1.50;;
75446;SDS011;64024;55.820;37.574;2023-05-29T12:55:47;3.17;;;1.45;;
75446;SDS011;64024;55.820;37.574;2023-05-29T12:58:14;8.55;;;2.85;;
75446;SDS011;64024;55.820;37.574;2023-05-29T13:00:42;3.40;;;1.52;;
75446;SDS011;64024;55.820;37.574;2023-05-29T13:03:11;4.43;;;1.75;;
75446;SDS011;64024;55.820;37.574;2023-05-29T13:05:37;2.28;;;1.42;;
75446;SDS011;64024;55.820;37.574;2023-05-29T13:08:04;3.13;;;1.42;;
75446;SDS011;64024;55.820;37.574;2023-05-29T13:10:32;3.17;;;1.33;;
75446;SDS011;64024;55.820;37.574;2023-05-29T13:13:00;11.80;;;3.05;;
75446;SDS011;64024;55.820;37.574;2023-05-29T13:15:26;4.05;;;1.23;;
75446;SDS011;64024;55.820;37.574;2023-05-29T13:17:52;1.42;;;0.98;;
75446;SDS011;64024;55.820;37.574;2023-05-29T13:20:19;1.38;;;0.77;;
75446;SDS011;64024;55.820;37.574;2023-05-29T13:22:47;2.15;;;0.88;;
75446;SDS011;64024;55.820;37.574;2023-05-29T13:25:15;2.05;;;0.95;;
75446;SDS011;64024;55.820;37.574;2023-05-29T13:27:46;2.80;;;0.80;;
75446;SDS011;64024;55.820;37.574;2023-05-29T13:30:14;8.32;;;2.03;;
75446;SDS011;64024;55.820;37.574;2023-05-29T13:32:42;4.30;;;2.10;;
75446;SDS011;64024;55.820;37.574;2023-05-29T13:35:10;2.92;;;1.20;;
75446;SDS011;64024;55.820;37.574;2023-05-29T13:37:37;3.40;;;1.75;;
75446;SDS011;64024;55.820;37.574;2023-05-29T13:40:05;1.83;;;1.20;;
75446;SDS011;64024;55.820;37.574;2023-05-29T13:42:32;2.22;;;1.17;;
75446;SDS011;64024;55.820;37.574;2023-05-29T13:47:26;4.78;;;4.28;;
75446;SDS011;64024;55.820;37.574;2023-05-29T13:49:56;4.82;;;3.45;;
75446;SDS011;64024;55.820;37.574;2023-05-29T13:52:23;5.07;;;4.25;;
75446;SDS011;64024;55.820;37.574;2023-05-29T13:54:51;5.28;;;4.07;;
75446;SDS011;64024;55.820;37.574;2023-05-29T13:57:18;5.55;;;4.15;;
75446;SDS011;64024;55.820;37.574;2023-05-29T13:59:45;6.55;;;4.32;;
75446;SDS011;64024;55.820;37.574;2023-05-29T14:04:38;12.25;;;3.35;;
75446;SDS011;64024;55.820;37.574;2023-05-29T14:07:04;7.65;;;4.00;;
75446;SDS011;64024;55.820;37.574;2023-05-29T14:09:32;4.25;;;1.60;;
75446;SDS011;64024;55.820;37.574;2023-05-29T14:12:00;1.92;;;1.23;;
75446;SDS011;64024;55.820;37.574;2023-05-29T14:14:27;4.07;;;2.20;;
75446;SDS011;64024;55.820;37.574;2023-05-29T14:16:54;3.85;;;3.03;;
75446;SDS011;64024;55.820;37.574;2023-05-29T14:19:23;3.03;;;2.30;;
75446;SDS011;64024;55.820;37.574;2023-05-29T14:21:50;14.50;;;4.68;;
75446;SDS011;64024;55.820;37.574;2023-05-29T14:24:17;6.20;;;3.60;;
75446;SDS011;64024;55.820;37.574;2023-05-29T14:26:44;5.70;;;3.25;;
75446;SDS011;64024;55.820;37.574;2023-05-29T14:29:12;5.80;;;3.30;;
75446;SDS011;64024;55.820;37.574;2023-05-29T14:31:39;3.53;;;3.20;;
75446;SDS011;64024;55.820;37.574;2023-05-29T14:34:09;6.70;;;4.78;;
75446;SDS011;64024;55.820;37.574;2023-05-29T14:36:37;5.30;;;4.63;;
75446;SDS011;64024;55.820;37.574;2023-05-29T14:39:05;7.85;;;4.75;;
75446;SDS011;64024;55.820;37.574;2023-05-29T14:41:31;7.68;;;5.28;;
75446;SDS011;64024;55.820;37.574;2023-05-29T14:44:00;5.80;;;4.50;;
75446;SDS011;64024;55.820;37.574;2023-05-29T14:46:26;6.35;;;4.95;;
75446;SDS011;64024;55.820;37.574;2023-05-29T14:48:57;4.97;;;4.30;;
75446;SDS011;64024;55.820;37.574;2023-05-29T14:51:24;3.33;;;2.67;;
75446;SDS011;64024;55.820;37.574;2023-05-29T14:53:51;6.38;;;4.88;;
75446;SDS011;64024;55.820;37.574;2023-05-29T14:56:18;5.97;;;5.45;;
75446;SDS011;64024;55.820;37.574;2023-05-29T14:58:45;5.20;;;4.70;;
75446;SDS011;64024;55.820;37.574;2023-05-29T15:01:13;4.03;;;2.60;;
75446;SDS011;64024;55.820;37.574;2023-05-29T15:03:41;3.03;;;2.47;;
75446;SDS011;64024;55.820;37.574;2023-05-29T15:06:08;2.33;;;1.40;;
75446;SDS011;64024;55.820;37.574;2023-05-29T15:08:37;5.32;;;1.42;;
75446;SDS011;64024;55.820;37.574;2023-05-29T15:11:05;4.78;;;1.33;;
75446;SDS011;64024;55.820;37.574;2023-05-29T15:13:31;3.95;;;1.65;;
75446;SDS011;64024;55.820;37.574;2023-05-29T15:15:58;5.28;;;4.70;;
75446;SDS011;64024;55.820;37.574;2023-05-29T15:18:29;2.90;;;2.30;;
75446;SDS011;64024;55.820;37.574;2023-05-29T15:20:56;7.78;;;4.68;;
75446;SDS011;64024;55.820;37.574;2023-05-29T15:23:23;5.65;;;5.15;;
75446;SDS011;64024;55.820;37.574;2023-05-29T15:25:51;4.80;;;3.67;;
75446;SDS011;64024;55.820;37.574;2023-05-29T15:28:18;5.90;;;5.30;;
75446;SDS011;64024;55.820;37.574;2023-05-29T15:30:45;6.47;;;5.47;;
75446;SDS011;64024;55.820;37.574;2023-05-29T15:33:12;5.35;;;4.85;;
75446;SDS011;64024;55.820;37.574;2023-05-29T15:35:40;7.00;;;5.35;;
75446;SDS011;64024;55.820;37.574;2023-05-29T15:38:08;7.47;;;5.78;;
75446;SDS011;64024;55.820;37.574;2023-05-29T15:40:35;7.10;;;5.80;;
75446;SDS011;64024;55.820;37.574;2023-05-29T15:43:01;6.35;;;5.13;;
75446;SDS011;64024;55.820;37.574;2023-05-29T15:45:28;5.70;;;5.20;;
75446;SDS011;64024;55.820;37.574;2023-05-29T15:47:55;7.07;;;5.68;;
75446;SDS011;64024;55.820;37.574;2023-05-29T15:50:22;4.30;;;3.10;;
75446;SDS011;64024;55.820;37.574;2023-05-29T15:52:48;6.50;;;3.58;;
75446;SDS011;64024;55.820;37.574;2023-05-29T15:55:15;3.40;;;1.95;;